Flight Track Log - Related Links

Times and Time Zones

All times are in EDT time to prevent confusion due to time zone crossing. See the ANT536 flight status page for this flight to view local times or setup timezone preferences in your user account.

Time Position Orientation Groundspeed Altitude Reporting Facility
EDT Latitude Longitude Course Direction KTS MPH feet Rate Location/Type
Tue 11:06:13 PM 49.1870 -123.1960 280° West 173 199 200  Level FlightAware ADS-B
Tue 11:06:43 PM 49.1910 -123.2330 279° West 194 223 1,300 1,964 Climbing FlightAware ADS-B
Tue 11:07:08 PM 49.1970 -123.2700 284° West 221 254 2,000 2,280 Climbing FlightAware ADS-B
Tue 11:07:33 PM 49.2030 -123.3080 284° West 223 257 3,200 2,640 Climbing FlightAware ADS-B
Tue 11:07:58 PM 49.2130 -123.3430 294° West 234 269 4,200 2,400 Climbing FlightAware ADS-B
Tue 11:08:13 PM 49.2280 -123.3550 332° Northwest 242 278 4,800 2,600 Climbing FlightAware ADS-B
Tue 11:08:28 PM 49.2440 -123.3570 355° North 246 283 5,500 2,382 Climbing FlightAware ADS-B
Tue 11:09:21 PM 49.3020 -123.3560 North 255 293 7,500 2,077 Climbing FlightAware ADS-B
Tue 11:09:46 PM 49.3360 -123.3550 North 291 335 8,200 2,160 Climbing FlightAware ADS-B
Tue 11:10:11 PM 49.3730 -123.3540 North 290 334 9,300 2,197 Climbing FlightAware ADS-B
Tue 11:10:57 PM 49.4390 -123.3520 North 321 369 10,800 1,852 Climbing FlightAware ADS-B
Tue 11:11:32 PM 49.4950 -123.3500 North 355 409 11,800 2,000 Climbing FlightAware ADS-B
Tue 11:12:18 PM 49.5700 -123.3460 North 370 426 13,500 2,541 Climbing FlightAware ADS-B
Tue 11:12:57 PM 49.6410 -123.3420 North 368 423 15,400 2,727 Climbing FlightAware ADS-B
Tue 11:13:35 PM 49.7069 -123.3410 North 382 440 17,000 2,553 Climbing FlightAware ADS-B
Tue 11:13:44 PM 49.7225 -123.3480 344° North 377 434 17,400 2,327 Climbing FlightAware ADS-B
Tue 11:14:24 PM 49.7852 -123.3930 335° Northwest 385 443 18,900 2,219 Climbing FlightAware ADS-B
Tue 11:14:57 PM 49.8386 -123.4310 335° Northwest 391 450 20,100 2,160 Climbing FlightAware ADS-B
Tue 11:15:39 PM 49.9080 -123.4790 336° Northwest 391 450 21,600 2,074 Climbing FlightAware ADS-B
Tue 11:16:18 PM 49.9730 -123.5270 335° Northwest 406 467 22,900 1,875 Climbing FlightAware ADS-B
Tue 11:16:59 PM 50.0410 -123.5770 335° Northwest 413 475 24,100 1,680 Climbing FlightAware ADS-B
Tue 11:17:33 PM 50.1020 -123.6210 335° Northwest 413 475 25,000 1,671 Climbing FlightAware ADS-B
Tue 11:18:18 PM 50.1830 -123.6790 335° Northwest 425 489 26,300 1,784 Climbing FlightAware ADS-B
Tue 11:18:47 PM 50.2358 -123.7180 335° Northwest 428 493 27,200 1,558 Climbing FlightAware ADS-B
Tue 11:19:35 PM 50.3225 -123.7820 335° Northwest 429 494 28,300 1,367 Climbing FlightAware ADS-B
Tue 11:20:06 PM 50.3793 -123.8240 335° Northwest 439 505 29,000 1,524 Climbing FlightAware ADS-B
Tue 11:20:38 PM 50.4360 -123.8660 335° Northwest 439 505 29,900 1,731 Climbing FlightAware ADS-B
Tue 11:20:58 PM 50.4732 -123.8940 334° Northwest 438 504 30,500 1,920 Climbing FlightAware ADS-B
Tue 11:21:28 PM 50.5275 -123.9340 335° Northwest 428 493 31,500 2,000 Climbing FlightAware ADS-B
Tue 11:21:58 PM 50.5809 -123.9730 335° Northwest 419 482 32,500 1,760 Climbing FlightAware ADS-B
Tue 11:22:43 PM 50.6580 -124.0310 335° Northwest 414 476 33,700 1,253 Climbing FlightAware ADS-B
Tue 11:23:29 PM 50.7400 -124.0920 335° Northwest 420 483 34,400 848 Climbing FlightAware ADS-B
Tue 11:24:15 PM 50.8180 -124.1510 334° Northwest 423 487 35,000 1,000 Climbing FlightAware ADS-B
Tue 11:24:53 PM 50.8840 -124.2010 334° Northwest 419 482 35,800 750 Climbing FlightAware ADS-B
Tue 11:25:35 PM 50.9590 -124.2580 334° Northwest 419 482 36,000 136 Climbing FlightAware ADS-B
Tue 11:26:21 PM 51.0390 -124.3190 334° Northwest 417 480 36,000  Level FlightAware ADS-B
Tue 11:27:01 PM 51.1090 -124.3720 335° Northwest 415 478 36,000  Level FlightAware ADS-B
Tue 11:27:45 PM 51.1850 -124.4300 334° Northwest 415 478 36,000  Level FlightAware ADS-B
Tue 11:28:21 PM 51.2470 -124.4780 334° Northwest 414 476 36,000  Level FlightAware ADS-B
Tue 11:28:59 PM 51.3130 -124.5280 335° Northwest 415 478 36,000  Level FlightAware ADS-B
Tue 11:29:43 PM 51.3870 -124.5860 334° Northwest 413 475 36,000  Level FlightAware ADS-B
Tue 11:29:55 PM 51.4080 -124.6020 335° Northwest 413 475 36,000  Level FlightAware ADS-B
Tue 11:31:29 PM 51.5690 -124.7270 334° Northwest 410 472 36,000  Level FlightAware ADS-B
Tue 11:32:11 PM 51.6410 -124.7840 334° Northwest 408 470 36,000  Level FlightAware ADS-B
Tue 11:32:55 PM 51.7170 -124.8430 334° Northwest 407 468 36,000  Level FlightAware ADS-B
Tue 11:33:37 PM 51.7860 -124.8980 334° Northwest 407 468 36,000  Level FlightAware ADS-B
Tue 11:34:17 PM 51.8550 -124.9530 334° Northwest 410 472 36,000  Level FlightAware ADS-B
Tue 11:35:01 PM 51.9290 -125.0110 334° Northwest 410 472 36,000  Level FlightAware ADS-B
Tue 11:35:41 PM 51.9970 -125.0650 334° Northwest 410 472 36,000  Level FlightAware ADS-B
Tue 11:36:23 PM 52.0670 -125.1220 333° Northwest 408 470 36,000  Level FlightAware ADS-B
Tue 11:36:59 PM 52.1280 -125.1710 334° Northwest 406 467 36,000  Level FlightAware ADS-B
Tue 11:37:42 PM 52.2000 -125.2280 334° Northwest 407 468 36,000  Level FlightAware ADS-B
Tue 11:38:21 PM 52.2670 -125.2820 334° Northwest 408 470 36,000  Level FlightAware ADS-B
Tue 11:38:57 PM 52.3270 -125.3310 333° Northwest 408 470 36,000  Level FlightAware ADS-B
Tue 11:39:41 PM 52.4010 -125.3920 333° Northwest 410 472 36,000  Level FlightAware ADS-B
Tue 11:40:21 PM 52.4690 -125.4470 334° Northwest 410 472 36,000  Level FlightAware ADS-B
Tue 11:40:57 PM 52.5300 -125.4970 334° Northwest 408 470 36,000  Level FlightAware ADS-B
Tue 11:41:37 PM 52.5980 -125.5530 333° Northwest 408 470 36,000  Level FlightAware ADS-B
Tue 11:42:20 PM 52.6710 -125.6120 334° Northwest 406 467 36,000  Level FlightAware ADS-B
Tue 11:43:04 PM 52.7440 -125.6730 333° Northwest 404 465 36,000  Level FlightAware ADS-B
Tue 11:43:46 PM 52.8130 -125.7300 333° Northwest 402 463 36,000  Level FlightAware ADS-B
Tue 11:44:30 PM 52.8870 -125.7920 333° Northwest 403 464 36,000  Level FlightAware ADS-B
Tue 11:45:10 PM 52.9530 -125.8470 333° Northwest 403 464 36,000  Level FlightAware ADS-B
Tue 11:45:46 PM 53.0120 -125.8970 333° Northwest 404 465 36,000  Level FlightAware ADS-B
Tue 11:46:26 PM 53.0790 -125.9530 333° Northwest 406 467 36,000  Level FlightAware ADS-B
Tue 11:47:10 PM 53.1510 -126.0150 333° Northwest 405 466 36,000  Level FlightAware ADS-B
Tue 11:47:53 PM 53.2130 -126.0690 332° Northwest 405 466 36,000  Level FlightAware ADS-B
Tue 11:48:29 PM 53.2630 -126.1140 332° Northwest 405 466 36,000  Level FlightAware ADS-B
Tue 11:49:17 PM 53.3310 -126.1740 332° Northwest 405 466 36,000  Level FlightAware ADS-B
Tue 11:49:53 PM 53.3820 -126.2190 332° Northwest 405 466 36,000  Level FlightAware ADS-B
Tue 11:50:29 PM 53.4320 -126.2640 332° Northwest 405 466 36,000  Level FlightAware ADS-B
Tue 11:51:06 PM 53.4840 -126.3100 332° Northwest 405 466 36,000  Level FlightAware ADS-B
Tue 11:51:54 PM 53.5520 -126.3710 332° Northwest 405 466 36,000  Level FlightAware ADS-B
Tue 11:52:30 PM 53.6020 -126.4160 332° Northwest 405 466 36,000  Level FlightAware ADS-B
Tue 11:53:06 PM 53.6530 -126.4620 332° Northwest 405 466 36,000  Level FlightAware ADS-B
Tue 11:53:55 PM 53.7220 -126.5230 332° Northwest 405 466 36,000  Level FlightAware ADS-B
Tue 11:54:31 PM 53.7720 -126.5690 331° Northwest 405 466 36,000  Level FlightAware ADS-B
Tue 11:55:07 PM 53.8230 -126.6150 332° Northwest 405 466 36,000  Level FlightAware ADS-B
Tue 11:55:56 PM 53.8920 -126.6770 332° Northwest 405 466 36,000  Level FlightAware ADS-B
Tue 11:56:32 PM 53.9430 -126.7220 333° Northwest 405 466 36,000  Level FlightAware ADS-B
Tue 11:58:01 PM 54.2350 -126.9610 334° Northwest 403 464 36,000  Level FlightAware ADS-B
Tue 11:58:41 PM 54.3000 -127.0200 332° Northwest 404 465 36,000  Level FlightAware ADS-B
Tue 11:59:21 PM 54.3660 -127.0790 332° Northwest 404 465 36,000  Level FlightAware ADS-B
Tue 11:59:57 PM 54.4260 -127.1330 332° Northwest 403 464 36,000  Level FlightAware ADS-B
Wed 12:00:41 AM 54.4980 -127.2000 332° Northwest 404 465 36,000  Level FlightAware ADS-B
Wed 12:01:23 AM 54.5660 -127.2620 332° Northwest 406 467 36,000  Level FlightAware ADS-B
Wed 12:02:03 AM 54.6340 -127.3240 332° Northwest 408 470 36,000  Level FlightAware ADS-B
Wed 12:03:01 AM 54.7300 -127.4130 332° Northwest 409 471 36,000  Level FlightAware ADS-B
Wed 12:03:58 AM 54.8170 -127.4950 332° Northwest 409 471 36,000  Level FlightAware ADS-B
Wed 12:04:32 AM 54.8650 -127.5410 331° Northwest 409 471 36,000  Level FlightAware ADS-B
Wed 12:05:17 AM 54.9510 -127.6200 332° Northwest 415 478 36,000  Level FlightAware ADS-B
Wed 12:05:53 AM 55.0210 -127.6850 332° Northwest 421 484 36,000  Level FlightAware ADS-B
Wed 12:06:32 AM 55.0860 -127.7460 332° Northwest 422 486 36,000  Level FlightAware ADS-B
Wed 12:07:11 AM 55.1540 -127.8100 332° Northwest 423 487 36,000  Level FlightAware ADS-B
Wed 12:07:55 AM 55.2290 -127.8810 332° Northwest 423 487 36,000  Level FlightAware ADS-B
Wed 12:08:31 AM 55.2900 -127.9400 331° Northwest 423 487 36,000  Level FlightAware ADS-B
Wed 12:09:06 AM 55.3440 -127.9920 331° Northwest 422 486 36,000  Level FlightAware ADS-B
Wed 12:09:54 AM 55.4130 -128.0600 331° Northwest 422 486 36,000  Level FlightAware ADS-B
Wed 12:10:30 AM 55.4660 -128.1110 331° Northwest 422 486 36,000  Level FlightAware ADS-B
Wed 12:11:35 AM 55.5600 -128.2040 331° Northwest 422 486 36,000  Level FlightAware ADS-B
Wed 12:12:11 AM 55.6120 -128.2550 331° Northwest 422 486 36,000  Level FlightAware ADS-B
Wed 12:12:57 AM 55.6790 -128.3210 331° Northwest 422 486 36,000  Level FlightAware ADS-B
Wed 12:13:33 AM 55.7310 -128.3720 331° Northwest 422 486 36,000  Level FlightAware ADS-B
Wed 12:14:09 AM 55.7830 -128.4230 331° Northwest 422 486 36,000  Level FlightAware ADS-B
Wed 12:14:57 AM 55.8530 -128.4920 331° Northwest 422 486 36,000  Level FlightAware ADS-B
Wed 12:16:46 AM 56.0110 -128.6490 331° Northwest 422 486 36,000  Level FlightAware ADS-B
Wed 12:17:22 AM 56.0630 -128.7010 331° Northwest 422 486 36,000  Level FlightAware ADS-B
Wed 12:18:11 AM 56.1350 -128.7710 332° Northwest 422 486 36,000  Level FlightAware ADS-B
Wed 12:19:31 AM 56.4167 -129.1000 332° Northwest 430 495 36,000  Level Vancouver Center
Wed 12:20:31 AM 56.5333 -129.2000 335° Northwest 430 495 36,000  Level Vancouver Center
Wed 12:21:31 AM 56.6333 -129.3167 327° Northwest 410 472 36,000  Level Vancouver Center
Wed 12:22:31 AM 56.7333 -129.4500 324° Northwest 430 495 36,000  Level Vancouver Center
Wed 12:23:31 AM 56.8167 -129.5500 327° Northwest 430 495 36,000  Level Vancouver Center
Wed 12:24:31 AM 56.9333 -129.6833 328° Northwest 430 495 36,000  Level Vancouver Center
Wed 12:25:31 AM 57.0167 -129.8000 323° Northwest 410 472 36,000  Level Vancouver Center
Wed 12:26:31 AM 57.1167 -129.9333 324° Northwest 430 495 36,000  Level Vancouver Center
Wed 12:28:00 AM 57.2506 -130.0954 327° Northwest  Level FlightAware Approximate
Wed 12:35:00 AM 57.8717 -130.8985 324° Northwest  Level FlightAware Approximate
Wed 12:36:00 AM 57.9581 -131.0202 323° Northwest  Level FlightAware Approximate
Wed 12:37:00 AM 58.0445 -131.1426 323° Northwest  Level FlightAware Approximate
Wed 12:38:00 AM 58.1307 -131.2655 323° Northwest  Level FlightAware Approximate
Wed 12:39:00 AM 58.2168 -131.3891 323° Northwest  Level FlightAware Approximate
Wed 12:40:00 AM 58.3028 -131.5132 323° Northwest  Level FlightAware Approximate
Wed 12:41:00 AM 58.3895 -131.6358 324° Northwest  Level FlightAware Approximate
Wed 12:42:00 AM 58.4762 -131.7587 323° Northwest  Level FlightAware Approximate
Wed 12:43:00 AM 58.5628 -131.8822 323° Northwest  Level FlightAware Approximate
Wed 12:44:00 AM 58.6487 -132.0076 321° Northwest  Level FlightAware Approximate
Wed 12:45:00 AM 58.7322 -132.1393 321° Northwest  Level FlightAware Approximate
Wed 12:46:00 AM 58.8156 -132.2717 321° Northwest  Level FlightAware Approximate
Wed 12:47:00 AM 58.9021 -132.3963 324° Northwest  Level FlightAware Approximate
Wed 12:48:00 AM 58.9889 -132.5208 323° Northwest  Level FlightAware Approximate
Wed 12:49:00 AM 59.0752 -132.6469 321° Northwest  Level FlightAware Approximate
Wed 12:50:00 AM 59.1587 -132.7802 321° Northwest  Level FlightAware Approximate
Wed 12:51:00 AM 59.2424 -132.9135 323° Northwest  Level FlightAware Approximate
Wed 12:52:00 AM 59.3274 -133.0437 321° Northwest  Level FlightAware Approximate
Wed 12:53:00 AM 59.4112 -133.1775 321° Northwest  Level FlightAware Approximate
Wed 12:54:00 AM 59.4973 -133.3049 328° Northwest  Level FlightAware Approximate
Wed 12:55:00 AM 59.5840 -133.4313 321° Northwest  Level FlightAware Approximate
Wed 12:56:00 AM 59.6677 -133.5663 321° Northwest  Level FlightAware Approximate
Wed 12:57:00 AM 59.7512 -133.7020 321° Northwest  Level FlightAware Approximate
Wed 12:58:00 AM 59.8346 -133.8382 321° Northwest  Level FlightAware Approximate
Wed 12:59:00 AM 59.9179 -133.9752 321° Northwest  Level FlightAware Approximate
Wed 01:00:00 AM 60.0010 -134.1128 320° Northwest  Level FlightAware Approximate
Wed 01:01:00 AM 60.0840 -134.2510 320° Northwest  Level FlightAware Approximate
Wed 01:02:00 AM 60.1675 -134.3886 321° Northwest  Level FlightAware Approximate
Wed 01:03:00 AM 60.2514 -134.5252 321° Northwest  Level FlightAware Approximate
Wed 01:04:00 AM 60.3344 -134.6646 320° Northwest  Level FlightAware Approximate
Wed 01:05:00 AM 60.4170 -134.8053 320° Northwest  Level FlightAware Approximate
Wed 01:06:00 AM 60.5010 -134.9429 321° Northwest  Level FlightAware Approximate
Wed 01:07:00 AM 60.5836 -135.0839 316° Northwest  Level FlightAware Approximate
Wed 01:08:00 AM 60.6783 -135.0830 20° North  Level FlightAware Approximate
Wed 01:09:00 AM 60.7000 -135.0667 20° North  Level FlightAware Approximate
Wed 01:10:00 AM 60.7095 -135.0673 20° North  Level Estimated
Wed 01:11:00 AM 60.7095 -135.0673 20° North  Level Estimated
Wed 01:12:00 AM 60.7095 -135.0673 20° North  Level Estimated
Wed 01:13:00 AM 60.7095 -135.0673 20° North  Level Estimated
Wed 01:14:00 AM 60.7095 -135.0673 20° North  Level Estimated
Wed 01:15:00 AM 60.7095 -135.0673 20° North  Level Estimated

Login

Don't have an account? Register now (free) for customized features, flight alerts, and more!